M I D A S
Marine Information and Data Acquisition System
Tripno 1573 of the Zeeleeuw from 2008-09-24 08:31:13 to 2008-09-24 13:55:11
Back to CruiseResearch ActivitiesStationsMapUnderway DataData graphs

EquipmentUnitsComment
TimeDGPSUTC
LatitudeDGPSDM.mWGS84
LongitudeDGPSDM.mWGS84
TemperatureSBE03/SBE38deg celciusITS90
ConductivitySBE21S/mITS90
SalinitySBE21 Practical Salinity Units
ChlorophylAChelsea fluorimeterg/lCalibrated in Aceton
Missing or incorrect values are displayed as -999
Sea surface data collected by the RV Zeeleeuw from 2008-09-24 08:31:13 to 2008-09-24 13:55:11
Time Latitude Longitude Temperature Conductivity Salinity ChlorophylA
2008-09-24 08:33:20 51°13.624 2°56.047 -999 -999 -999 -999
2008-09-24 08:35:20 51°13.632 2°56.012 -999 -999 -999 -999
2008-09-24 08:37:20 51°13.685 2°55.829 -999 -999 -999 -999
2008-09-24 08:39:20 51°13.79 2°55.669 -999 -999 -999 -999
2008-09-24 08:41:20 51°13.924 2°55.625 -999 -999 -999 -999
2008-09-24 08:43:20 51°13.973 2°55.592 -999 -999 -999 -999
2008-09-24 08:45:20 51°14.131 2°55.417 -999 -999 -999 -999
2008-09-24 08:47:20 51°14.311 2°55.137 -999 -999 -999 -999
2008-09-24 08:49:20 51°14.482 2°54.705 -999 -999 -999 -999
2008-09-24 08:51:20 51°14.654 2°54.208 -999 -999 -999 -999
2008-09-24 08:53:20 51°14.818 2°53.735 -999 -999 -999 -999
2008-09-24 08:55:20 51°14.962 2°53.216 -999 -999 -999 -999
2008-09-24 08:57:20 51°14.958 2°52.646 -999 -999 -999 -999
2008-09-24 08:59:20 51°14.954 2°52.077 -999 -999 -999 -999
2008-09-24 09:01:20 51°14.981 2°51.501 -999 -999 -999 -999
2008-09-24 09:03:20 51°15.087 2°50.939 -999 -999 -999 -999
2008-09-24 09:05:20 51°15.192 2°50.379 -999 -999 -999 -999
2008-09-24 09:07:20 51°15.296 2°49.814 -999 -999 -999 -999
2008-09-24 09:09:20 51°15.396 2°49.261 -999 -999 -999 -999
2008-09-24 09:11:20 51°15.498 2°48.701 -999 -999 -999 -999
2008-09-24 09:13:20 51°15.595 2°48.144 -999 -999 -999 -999
2008-09-24 09:15:20 51°15.697 2°47.585 -999 -999 -999 -999
2008-09-24 09:17:20 51°15.811 2°47.036 -999 -999 -999 -999
2008-09-24 09:19:20 51°15.945 2°46.501 -999 -999 -999 -999
2008-09-24 09:21:20 51°16.097 2°45.979 -999 -999 -999 -999
2008-09-24 09:23:20 51°16.284 2°45.479 -999 -999 -999 -999
2008-09-24 09:25:20 51°16.491 2°45.003 -999 -999 -999 -999
2008-09-24 09:27:20 51°16.7 2°44.518 -999 -999 -999 -999
2008-09-24 09:29:20 51°16.91 2°44.024 -999 -999 -999 -999
2008-09-24 09:31:20 51°17.121 2°43.528 -999 -999 -999 -999
2008-09-24 09:33:20 51°17.325 2°43.038 -999 -999 -999 -999
2008-09-24 09:35:20 51°17.532 2°42.556 -999 -999 -999 -999
2008-09-24 09:37:20 51°17.746 2°42.067 -999 -999 -999 -999
2008-09-24 09:39:20 51°17.96 2°41.581 -999 -999 -999 -999
2008-09-24 09:41:20 51°18.169 2°41.09 -999 -999 -999 -999
2008-09-24 09:43:20 51°18.376 2°40.61 -999 -999 -999 -999
2008-09-24 09:45:20 51°18.585 2°40.138 -999 -999 -999 -999
2008-09-24 09:47:20 51°18.797 2°39.663 -999 -999 -999 -999
2008-09-24 09:49:20 51°19.012 2°39.195 -999 -999 -999 -999
2008-09-24 09:51:20 51°19.19 2°38.792 -999 -999 -999 -999
2008-09-24 09:53:20 51°19.343 2°38.445 -999 -999 -999 -999
2008-09-24 09:55:20 51°19.495 2°38.104 -999 -999 -999 -999
2008-09-24 09:57:20 51°19.644 2°37.767 -999 -999 -999 -999
2008-09-24 09:59:20 51°19.806 2°37.439 -999 -999 -999 -999
2008-09-24 10:01:20 51°19.951 2°37.151 -999 -999 -999 -999
2008-09-24 10:03:20 51°20.035 2°37.043 -999 -999 -999 -999
2008-09-24 10:05:20 51°20.091 2°36.968 -999 -999 -999 -999
2008-09-24 10:07:20 51°20.1 2°36.864 -999 -999 -999 -999
2008-09-24 10:09:20 51°20.122 2°36.819 -999 -999 -999 -999
2008-09-24 10:11:20 51°20.142 2°36.809 -999 -999 -999 -999
2008-09-24 10:13:20 51°20.209 2°36.826 -999 -999 -999 -999
2008-09-24 10:15:20 51°20.157 2°37.014 -999 -999 -999 -999
2008-09-24 10:17:20 51°20.05 2°37.034 -999 -999 -999 -999
2008-09-24 10:19:20 51°20.045 2°36.962 -999 -999 -999 -999
2008-09-24 10:21:20 51°20.067 2°36.94 -999 -999 -999 -999
2008-09-24 10:23:20 51°20.102 2°36.888 -999 -999 -999 -999
2008-09-24 10:25:20 51°20.135 2°36.861 -999 -999 -999 -999
2008-09-24 10:27:20 51°20.148 2°36.849 -999 -999 -999 -999
2008-09-24 10:29:20 51°20.153 2°36.843 -999 -999 -999 -999
2008-09-24 10:31:20 51°20.154 2°36.84 -999 -999 -999 -999
2008-09-24 10:33:20 51°20.156 2°36.84 -999 -999 -999 -999
2008-09-24 10:35:20 51°20.162 2°36.837 -999 -999 -999 -999
2008-09-24 10:37:20 51°20.166 2°36.826 -999 -999 -999 -999
2008-09-24 10:39:20 51°20.17 2°36.815 -999 -999 -999 -999
2008-09-24 10:41:20 51°20.193 2°36.796 -999 -999 -999 -999
2008-09-24 10:43:20 51°20.248 2°36.884 -999 -999 -999 -999
2008-09-24 10:45:20 51°20.19 2°36.893 -999 -999 -999 -999
2008-09-24 10:47:20 51°20.172 2°36.892 -999 -999 -999 -999
2008-09-24 10:49:20 51°20.169 2°36.888 -999 -999 -999 -999
2008-09-24 10:51:20 51°20.168 2°36.877 -999 -999 -999 -999
2008-09-24 10:53:20 51°20.166 2°36.861 -999 -999 -999 -999
2008-09-24 10:55:20 51°20.166 2°36.846 -999 -999 -999 -999
2008-09-24 10:57:20 51°20.167 2°36.826 -999 -999 -999 -999
2008-09-24 10:59:20 51°20.168 2°36.807 -999 -999 -999 -999
2008-09-24 11:01:20 51°20.167 2°36.791 -999 -999 -999 -999
2008-09-24 11:03:20 51°20.168 2°36.77 -999 -999 -999 -999
2008-09-24 11:05:20 51°20.167 2°36.752 -999 -999 -999 -999
2008-09-24 11:07:20 51°20.167 2°36.732 -999 -999 -999 -999
2008-09-24 11:09:20 51°20.167 2°36.716 -999 -999 -999 -999
2008-09-24 11:11:20 51°20.167 2°36.693 -999 -999 -999 -999
2008-09-24 11:13:20 51°20.17 2°36.667 -999 -999 -999 -999
2008-09-24 11:15:20 51°20.173 2°36.642 -999 -999 -999 -999
2008-09-24 11:17:20 51°20.172 2°36.619 -999 -999 -999 -999
2008-09-24 11:19:20 51°20.162 2°36.612 -999 -999 -999 -999
2008-09-24 11:21:20 51°20.146 2°36.656 -999 -999 -999 -999
2008-09-24 11:23:20 51°20.134 2°36.684 -999 -999 -999 -999
2008-09-24 11:25:20 51°20.123 2°36.704 -999 -999 -999 -999
2008-09-24 11:27:20 51°20.112 2°36.725 -999 -999 -999 -999
2008-09-24 11:29:20 51°20.102 2°36.746 -999 -999 -999 -999
2008-09-24 11:31:20 51°20.092 2°36.76 -999 -999 -999 -999
2008-09-24 11:33:20 51°20.084 2°36.745 -999 -999 -999 -999
2008-09-24 11:35:20 51°20.081 2°36.712 -999 -999 -999 -999
2008-09-24 11:37:20 51°20.076 2°36.68 -999 -999 -999 -999
2008-09-24 11:39:20 51°20.07 2°36.647 -999 -999 -999 -999
2008-09-24 11:41:20 51°20.068 2°36.614 -999 -999 -999 -999
2008-09-24 11:43:20 51°20.057 2°36.588 -999 -999 -999 -999
2008-09-24 11:45:20 51°20.043 2°36.569 -999 -999 -999 -999
2008-09-24 11:47:20 51°20.014 2°36.571 -999 -999 -999 -999
2008-09-24 11:49:20 51°19.999 2°36.557 -999 -999 -999 -999
2008-09-24 11:51:20 51°19.981 2°36.601 -999 -999 -999 -999
2008-09-24 11:53:20 51°20.021 2°36.643 -999 -999 -999 -999
2008-09-24 11:55:20 51°20.043 2°36.659 -999 -999 -999 -999
2008-09-24 11:57:20 51°20.049 2°36.677 -999 -999 -999 -999
2008-09-24 11:59:20 51°20.056 2°36.69 -999 -999 -999 -999
2008-09-24 13:01:20 51°17.034 2°43.45 -999 -999 -999 -999
2008-09-24 13:03:20 51°16.86 2°43.83 -999 -999 -999 -999
2008-09-24 13:05:20 51°16.728 2°44.248 -999 -999 -999 -999
2008-09-24 13:07:20 51°16.622 2°44.685 -999 -999 -999 -999
2008-09-24 13:09:20 51°16.518 2°45.118 -999 -999 -999 -999
2008-09-24 13:11:20 51°16.411 2°45.55 -999 -999 -999 -999
2008-09-24 13:13:20 51°16.306 2°45.982 -999 -999 -999 -999
2008-09-24 13:15:20 51°16.2 2°46.412 -999 -999 -999 -999
2008-09-24 13:17:20 51°16.093 2°46.836 -999 -999 -999 -999
2008-09-24 13:19:20 51°15.993 2°47.263 -999 -999 -999 -999
2008-09-24 13:21:20 51°15.9 2°47.695 -999 -999 -999 -999
2008-09-24 13:23:20 51°15.806 2°48.126 -999 -999 -999 -999
2008-09-24 13:25:20 51°15.711 2°48.557 -999 -999 -999 -999
2008-09-24 13:27:20 51°15.615 2°48.988 -999 -999 -999 -999
2008-09-24 13:29:20 51°15.517 2°49.422 -999 -999 -999 -999
2008-09-24 13:31:20 51°15.442 2°49.862 -999 -999 -999 -999
2008-09-24 13:33:20 51°15.363 2°50.305 -999 -999 -999 -999
2008-09-24 13:35:20 51°15.285 2°50.75 -999 -999 -999 -999
2008-09-24 13:37:20 51°15.199 2°51.19 -999 -999 -999 -999
2008-09-24 13:39:20 51°15.109 2°51.629 -999 -999 -999 -999
2008-09-24 13:41:20 51°15.021 2°52.068 -999 -999 -999 -999
2008-09-24 13:43:20 51°14.932 2°52.505 -999 -999 -999 -999
2008-09-24 13:45:20 51°14.845 2°52.944 -999 -999 -999 -999
2008-09-24 13:47:20 51°14.761 2°53.384 -999 -999 -999 -999
2008-09-24 13:49:20 51°14.671 2°53.823 -999 -999 -999 -999
2008-09-24 13:51:20 51°14.555 2°54.251 -999 -999 -999 -999
2008-09-24 13:53:20 51°14.447 2°54.683 -999 -999 -999 -999